METAR Data
IDs: Format: Raw Decoded Include TAF

Data at: 1020 UTC 26 Sep 2018

KANK 261015Z AUTO 16004KT 10SM CLR 06/M03 A3044 RMK AO1 T00561030
KANK 260955Z AUTO 17003KT 10SM CLR 06/M03 A3044 RMK AO1 T00581030
KANK 260935Z AUTO 00000KT 10SM CLR 06/M03 A3044 RMK AO1 T00621026
KANK 260915Z AUTO 00000KT 10SM CLR 07/M02 A3045 RMK AO1 T00671025
KANK 260855Z AUTO 16004KT 10SM CLR 07/M02 A3044 RMK AO1 T00671022
KANK 260835Z AUTO 12003KT 10SM CLR 07/M02 A3045 RMK AO1 T00711023
KANK 260815Z AUTO 13003KT 10SM CLR 08/M02 A3045 RMK AO1 T00751022
KANK 260755Z AUTO 12003KT 10SM CLR 08/M02 A3045 RMK AO1 T00801023
KANK 260735Z AUTO 13005KT 10SM CLR 08/M02 A3045 RMK AO1 T00831023
KANK 260715Z AUTO 13005KT 10SM CLR 09/M02 A3045 RMK AO1 T00861020
KANK 260655Z AUTO 00000KT 10SM CLR 09/M02 A3045 RMK AO1 T00931018
KANK 260635Z AUTO 00000KT 10SM CLR 10/M02 A3045 RMK AO1 T00951017
KANK 260615Z AUTO 00000KT 10SM CLR 09/M02 A3045 RMK AO1 T00941017
KANK 260555Z AUTO 03005KT 10SM CLR 10/M02 A3045 RMK AO1 T00961018 10163 20095 402400059
KANK 260535Z AUTO 07004KT 10SM CLR 10/M02 A3046 RMK AO1 T00951017
KANK 260515Z AUTO 05003KT 10SM CLR 10/M02 A3046 RMK AO1 T00981018
KANK 260455Z AUTO 00000KT 10SM CLR 10/M02 A3046 RMK AO1 T01011018
KANK 260435Z AUTO 04003KT 10SM CLR 10/M02 A3045 RMK AO1 T01031019
KANK 260415Z AUTO 05004KT 10SM CLR 11/M02 A3045 RMK AO1 T01051018
KANK 260355Z AUTO 09004KT 10SM CLR 11/M02 A3045 RMK AO1 T01061019
KANK 260335Z AUTO 10009G17KT 10SM CLR 11/M02 A3044 RMK AO1 T01101018
KANK 260315Z AUTO 11009G16KT 090V150 10SM CLR 11/M02 A3042 RMK AO1 T01101016
KANK 260255Z AUTO 11010G19KT 10SM CLR 11/M01 A3041 RMK AO1 T01131015
KANK 260235Z AUTO 10009G17KT 10SM CLR 12/M01 A3039 RMK AO1 T01161015
KANK 260215Z AUTO 12014G21KT 10SM CLR 12/M01 A3038 RMK AO1 T01201012
KANK 260155Z AUTO 11014G32KT 10SM CLR 12/M01 A3036 RMK AO1 T01231010
KANK 260135Z AUTO 12017G32KT 10SM CLR 13/M01 A3034 RMK AO1 T01271006
KANK 260115Z AUTO 13017G33KT 10SM CLR 13/00 A3032 RMK AO1 T01321005
KANK 260055Z AUTO 12023G35KT 10SM CLR 14/00 A3030 RMK AO1 T01361002
KANK 260035Z AUTO 13016G30KT 10SM CLR 15/00 A3029 RMK AO1 T01451005
KANK 260015Z AUTO 12022G29KT 10SM CLR 15/M01 A3028 RMK AO1 T01531007
KANK 252355Z AUTO 13017G27KT 10SM CLR 17/M01 A3027 RMK AO1 T01651007 10240 20165
KANK 252335Z AUTO 12016G25KT 10SM CLR 17/M01 A3027 RMK AO1 T01741007
KANK 252315Z AUTO 17006G18KT 10SM CLR 18/M01 A3026 RMK AO1 T01821013
KANK 252255Z AUTO 14012G16KT 10SM CLR 21/M04 A3025 RMK AO1 T02061039
KANK 252235Z AUTO 24006G18KT 190V260 10SM CLR 23/M21 A3025 RMK AO1 T02311209
KANK 252215Z AUTO 25011G16KT 10SM CLR 23/M22 A3025 RMK AO1 T02341216
KANK 252155Z AUTO 25014G18KT 10SM CLR 24/M20 A3025 RMK AO1 T02361205
KANK 252135Z AUTO 25014G22KT 10SM CLR 24/M18 A3025 RMK AO1 T02401182
KANK 252115Z AUTO 24017G23KT 10SM CLR 23/M18 A3025 RMK AO1 T02331179
KANK 252055Z AUTO 24019G23KT 10SM CLR 23/M16 A3025 RMK AO1 T02321165
KANK 252035Z AUTO 25014G21KT 10SM CLR 24/M17 A3025 RMK AO1 T02401174
KANK 252015Z AUTO 23015G22KT 10SM CLR 23/M17 A3026 RMK AO1 T02331170
KANK 251955Z AUTO 25016G22KT 10SM CLR 24/M17 A3027 RMK AO1 T02361168
KANK 251935Z AUTO 23015G20KT 10SM CLR 23/M17 A3027 RMK AO1 T02281166
KANK 251915Z AUTO 24015G19KT 10SM CLR 23/M17 A3028 RMK AO1 T02281169
KANK 251855Z AUTO 24013G18KT 10SM CLR 23/M17 A3029 RMK AO1 T02251173
KANK 251835Z AUTO 26013G17KT 10SM CLR 21/M16 A3029 RMK AO1 T02141161
KANK 251815Z AUTO 09004KT 10SM CLR 20/M08 A3030 RMK AO1 T02031081
KANK 251755Z AUTO 22006KT 10SM CLR 19/M08 A3031 RMK AO1 T01911085 10193 20059
KANK 251735Z AUTO 14008KT 10SM CLR 18/M05 A3031 RMK AO1 T01781055
KANK 251715Z AUTO 00000KT 10SM CLR 17/M05 A3032 RMK AO1 T01701054
KANK 251655Z AUTO 00000KT 10SM CLR 16/M05 A3033 RMK AO1 T01631049
KANK 251635Z AUTO 03004KT 10SM CLR 15/M05 A3033 RMK AO1 T01501051
KANK 251615Z AUTO 03003KT 10SM CLR 15/M06 A3034 RMK AO1 T01451061
KANK 251555Z AUTO 35003KT 10SM CLR 14/M06 A3034 RMK AO1 T01351059
KANK 251535Z AUTO 35007KT 10SM CLR 13/M06 A3034 RMK AO1 T01261065
KANK 251515Z AUTO 35009KT 10SM CLR 12/M06 A3033 RMK AO1 T01191059
KANK 251455Z AUTO 35006KT 10SM CLR 11/M05 A3033 RMK AO1 T01101054
KANK 251435Z AUTO 00000KT 10SM CLR 10/M04 A3033 RMK AO1 T00981039
KANK 251415Z AUTO 35007KT 10SM CLR 10/M05 A3033 RMK AO1 T00951047
KANK 251355Z AUTO 32005KT 10SM CLR 09/M05 A3033 RMK AO1 T00941050
KANK 251335Z AUTO 27004KT 10SM CLR 07/M02 A3033 RMK AO1 T00711024
KANK 251315Z AUTO 29005KT 10SM CLR 07/M03 A3032 RMK AO1 T00651030
KANK 251255Z AUTO 27007KT 10SM CLR 06/M01 A3031 RMK AO1 T00641012
KANK 251235Z AUTO 28006KT 10SM CLR 08/M02 A3030 RMK AO1 T00831024
KANK 251215Z AUTO 32006KT 10SM CLR 10/M03 A3030 RMK AO1 T00961034
KANK 251155Z AUTO 32003KT 10SM CLR 10/M03 A3029 RMK AO1 T00961028 10140 20081
KANK 251135Z AUTO 33004KT 10SM CLR 10/M02 A3028 RMK AO1 T00961019
KANK 251115Z AUTO 31006KT 10SM CLR 10/M01 A3027 RMK AO1 T00981008
KANK 251055Z AUTO 29003KT 10SM CLR 10/00 A3026 RMK AO1 T00970003
KANK 251035Z AUTO 32007KT 10SM CLR 11/01 A3024 RMK AO1 T01090009
KANK 251015Z AUTO 27003KT 10SM CLR 08/01 A3023 RMK AO1 T00840010
KANK 250955Z AUTO 00000KT 10SM CLR 09/01 A3022 RMK AO1 T00900013
KANK 250935Z AUTO 26006KT 10SM CLR 10/02 A3022 RMK AO1 T00950015
KANK 250915Z AUTO 32006KT 10SM CLR 10/02 A3022 RMK AO1 T01010016
KANK 250855Z AUTO 27006KT 10SM CLR 10/02 A3022 RMK AO1 T01040015
KANK 250835Z AUTO 25007KT 10SM CLR 10/02 A3022 RMK AO1 T01000020
KANK 250815Z AUTO 25007KT 10SM CLR 11/02 A3021 RMK AO1 T01130020
KANK 250735Z AUTO 31010KT 10SM CLR 13/02 A3020 RMK AO1 T01310022
KANK 250715Z AUTO 28008KT 10SM SCT095 13/02 A3020 RMK AO1 T01260023
KANK 250655Z AUTO 33006KT 10SM SCT095 13/03 A3020 RMK AO1 T01280025
KANK 250635Z AUTO 24008KT 10SM CLR 14/02 A3019 RMK AO1 T01350023
KANK 250615Z AUTO 22006KT 10SM CLR 13/03 A3019 RMK AO1 T01330025
KANK 250515Z AUTO 00000KT 10SM SCT070 SCT080 BKN120 14/04 A3020 RMK AO1 T01390042
KANK 250455Z AUTO 31004KT 10SM BKN090 BKN120 14/05 A3021 RMK AO1 T01370051
KANK 250435Z AUTO 25006KT 10SM BKN090 14/05 A3020 RMK AO1 T01360054
KANK 250415Z AUTO 00000KT 10SM SCT090 14/06 A3020 RMK AO1 T01390056
KANK 250355Z AUTO 23008KT 10SM SCT070 BKN090 13/07 A3021 RMK AO1 T01290071
KANK 250335Z AUTO 21004KT 7SM SCT024 SCT044 BKN090 15/05 A3021 RMK AO1 T01500052
KANK 250315Z AUTO 30007KT 10SM SCT070 BKN090 BKN110 15/01 A3021 RMK AO1 T01490014
KANK 250255Z AUTO 00000KT 10SM SCT100 SCT120 15/01 A3019 RMK AO1 T01510011
KANK 250235Z AUTO 00000KT 10SM SCT120 16/01 A3019 RMK AO1 T01600011
KANK 250215Z AUTO 23005KT 10SM CLR 16/01 A3017 RMK AO1 T01570005
KANK 250155Z AUTO 21003KT 10SM CLR 15/01 A3017 RMK AO1 T01470005
KANK 250135Z AUTO 00000KT 10SM CLR 17/01 A3017 RMK AO1 T01660011
KANK 250115Z AUTO 00000KT 10SM CLR 17/01 A3017 RMK AO1 T01690013
KANK 250055Z AUTO 34004KT 10SM SCT080 18/02 A3017 RMK AO1 T01750016
KANK 250035Z AUTO 35009KT 10SM CLR 19/01 A3017 RMK AO1 T01910006
KANK 250015Z AUTO 30005KT 10SM SCT110 20/00 A3017 RMK AO1 T02030000
KANK 242355Z AUTO 27012G25KT 10SM BKN110 21/00 A3016 RMK AO1 T02060000 10246 20200
KANK 242335Z AUTO 28014G23KT 10SM BKN090 BKN110 22/M01 A3015 RMK AO1 T02181011
KANK 242315Z AUTO 28010G19KT 10SM SCT090 22/M01 A3013 RMK AO1 T02231013
KANK 242255Z AUTO 25010G23KT 10SM CLR 23/M01 A3013 RMK AO1 T02251007
KANK 242235Z AUTO 25010G22KT 10SM SCT120 22/00 A3014 RMK AO1 T02171001